Kagamaru — JD3049 — position and weather

sailwx.info

Track history (hours):
 
Tides and Currents Weather Stations Pressure Air Temp Water Temp Dewpoint Dewpoint Depression Visibility Wind Speed Wind Dir Waves Ship Positions

Kagamaru

Last reported at 2015-Apr-28 11:33 UTC. Time now 2015-Apr-28 11:54 UTC.
Position N 35°25' E 139°41'.

Length 34 m; draft 3.6 m.

Type: Tug. MMSI: 431001272.

Date/timePositionNaut miles runAvg speedWind from/ knotsBaromVisibWave heightAir tempDewpointWater temp
2015-Apr-28 11:33N 35°25' E 139°41'1 1.1
2015-Apr-28 10:33N 35°26' E 139°42'0 0.0
2015-Apr-28 09:33N 35°26' E 139°42'0 0.0
2015-Apr-28 08:33N 35°26' E 139°42'1 1.3
2015-Apr-28 07:33N 35°27' E 139°41'1 0.9
2015-Apr-28 06:33N 35°27' E 139°42'0 0.0
2015-Apr-28 05:33N 35°27' E 139°42'0 0.0
2015-Apr-28 04:33N 35°27' E 139°42'2 2.2
2015-Apr-28 03:33N 35°28' E 139°44'1 1.0
2015-Apr-28 02:33N 35°27' E 139°44'2 1.7
2015-Apr-28 01:33N 35°29' E 139°46'3 3.0
2015-Apr-28 00:33N 35°32' E 139°46'5 4.8
2015-Apr-27 23:33N 35°27' E 139°43'2 1.6
2015-Apr-27 22:33N 35°27' E 139°45'4 4.3
2015-Apr-27 21:33N 35°31' E 139°46'7 6.9
2015-Apr-27 20:33N 35°27' E 139°39'0 0.0
2015-Apr-27 19:33N 35°27' E 139°39'0 0.0
2015-Apr-27 18:33N 35°27' E 139°39'0 0.0
2015-Apr-27 17:33N 35°27' E 139°39'0 0.0
2015-Apr-27 16:33N 35°27' E 139°39'0 0.0
2015-Apr-27 15:33N 35°27' E 139°39'0 0.0
2015-Apr-27 14:33N 35°27' E 139°39'0 0.0
2015-Apr-27 13:33N 35°27' E 139°39'0 0.0
2015-Apr-27 12:33N 35°27' E 139°39'0 0.0
2015-Apr-27 11:33N 35°27' E 139°39'0 0.0
2015-Apr-27 10:33N 35°27' E 139°39'0 0.0
2015-Apr-27 09:33N 35°27' E 139°39'0 0.0
2015-Apr-27 08:33N 35°27' E 139°39'1 0.7
2015-Apr-27 07:33N 35°27' E 139°40'2 1.5
2015-Apr-27 06:34N 35°27' E 139°42'1 0.6
2015-Apr-27 05:33N 35°26' E 139°42'0 0.0
2015-Apr-27 04:33N 35°26' E 139°42'0 0.0
2015-Apr-27 03:33N 35°26' E 139°42'5 5.4
2015-Apr-27 02:33N 35°29' E 139°47'0 0.0
2015-Apr-27 01:33N 35°29' E 139°47'3 3.2
2015-Apr-27 00:33N 35°26' E 139°46'2 2.4
2015-Apr-26 23:33N 35°26' E 139°43'3 2.7
2015-Apr-26 22:33N 35°27' E 139°40'0 0.0
2015-Apr-26 21:33N 35°27' E 139°40'0 0.0
2015-Apr-26 20:33N 35°27' E 139°40'0 0.0
2015-Apr-26 19:33N 35°27' E 139°40'0 0.0
2015-Apr-26 18:33N 35°27' E 139°40'0 0.0
2015-Apr-26 17:33N 35°27' E 139°40'0 0.0
2015-Apr-26 16:33N 35°27' E 139°40'0 0.0
2015-Apr-26 15:33N 35°27' E 139°40'0 0.0
2015-Apr-26 14:33N 35°27' E 139°40'0 0.0
2015-Apr-26 13:33N 35°27' E 139°40'0 0.0
2015-Apr-26 12:33N 35°27' E 139°40'0 0.0
2015-Apr-26 11:34N 35°27' E 139°40'0 0.0
2015-Apr-26 10:33N 35°27' E 139°40'0 0.0
2015-Apr-26 09:33N 35°27' E 139°40'0 0.0
2015-Apr-26 08:33N 35°27' E 139°40'0 0.0
2015-Apr-26 07:33N 35°27' E 139°40'0 0.0
2015-Apr-26 06:33N 35°27' E 139°40'0 0.0
2015-Apr-26 05:33N 35°27' E 139°40'0 0.0
2015-Apr-26 04:33N 35°27' E 139°40'0 0.0
2015-Apr-26 03:33N 35°27' E 139°40'0 0.0
2015-Apr-26 02:33N 35°27' E 139°40'0 0.0
2015-Apr-26 01:33N 35°27' E 139°40'0 0.0
2015-Apr-26 00:33N 35°27' E 139°40'0 0.0
2015-Apr-25 23:33N 35°27' E 139°40'2 1.5
2015-Apr-25 22:33N 35°27' E 139°41'1 1.4
2015-Apr-25 21:33N 35°25' E 139°42'3 2.7
2015-Apr-25 20:33N 35°28' E 139°42'0 0.3
2015-Apr-25 19:33N 35°28' E 139°42'0 0.0
2015-Apr-25 18:33N 35°28' E 139°42'0 0.0
2015-Apr-25 17:33N 35°28' E 139°42'0 0.0
2015-Apr-25 16:33N 35°28' E 139°42'1 1.5
2015-Apr-25 15:33N 35°26' E 139°41'1 1.3
2015-Apr-25 14:33N 35°26' E 139°43'1 0.7
2015-Apr-25 13:33N 35°26' E 139°42'1 1.3
2015-Apr-25 12:33N 35°27' E 139°40'1 1.0
2015-Apr-25 11:33N 35°28' E 139°41'0 0.0
2015-Apr-25 10:33N 35°28' E 139°41'0 0.0
2015-Apr-25 09:33N 35°28' E 139°41'1 0.5
2015-Apr-25 08:33N 35°27' E 139°41'0 0.2
2015-Apr-25 07:33N 35°27' E 139°41'1 1.3
2015-Apr-25 06:33N 35°27' E 139°39'0 0.0
2015-Apr-25 05:33N 35°27' E 139°39'0 0.0
2015-Apr-25 04:33N 35°27' E 139°39'0 0.0
2015-Apr-25 03:33N 35°27' E 139°39'0 0.0
2015-Apr-25 02:33N 35°27' E 139°39'0 0.0
2015-Apr-25 01:33N 35°27' E 139°39'0 0.0
2015-Apr-25 00:33N 35°27' E 139°39'0 0.0
2015-Apr-24 23:33N 35°27' E 139°39'0 0.0
2015-Apr-24 22:33N 35°27' E 139°39'0 0.0
2015-Apr-24 21:33N 35°27' E 139°39'0 0.0
2015-Apr-24 20:33N 35°27' E 139°39'0 0.0
2015-Apr-24 19:33N 35°27' E 139°39'0 0.0
2015-Apr-24 18:33N 35°27' E 139°39'0 0.0
2015-Apr-24 17:33N 35°27' E 139°39'0 0.0
2015-Apr-24 16:33N 35°27' E 139°39'0 0.0
2015-Apr-24 15:33N 35°27' E 139°39'0 0.0
2015-Apr-24 14:33N 35°27' E 139°39'0 0.0
2015-Apr-24 13:33N 35°27' E 139°39'0 0.0
2015-Apr-24 12:33N 35°27' E 139°39'0 0.0
2015-Apr-24 11:33N 35°27' E 139°39'0 0.0
2015-Apr-24 10:33N 35°27' E 139°39'0 0.0
2015-Apr-24 09:33N 35°27' E 139°39'2 2.0
2015-Apr-24 08:33N 35°27' E 139°42'1 1.2
2015-Apr-24 07:33N 35°28' E 139°42'2 2.0
2015-Apr-24 06:33N 35°27' E 139°39'0 0.0
2015-Apr-24 05:33N 35°27' E 139°39'0 0.0
2015-Apr-24 04:33N 35°27' E 139°39'1 1.3
2015-Apr-24 03:33N 35°27' E 139°41'1 1.1
2015-Apr-24 02:33N 35°27' E 139°40'0 0.0
2015-Apr-24 01:33N 35°27' E 139°40'0 0.0
2015-Apr-24 00:33N 35°27' E 139°40'0 0.0
2015-Apr-23 23:33N 35°27' E 139°40'2 2.0
2015-Apr-23 22:33N 35°26' E 139°42'2 2.3
2015-Apr-23 21:33N 35°27' E 139°39'0 0.0
2015-Apr-23 20:33N 35°27' E 139°39'0 0.0
2015-Apr-23 19:33N 35°27' E 139°39'0 0.0
2015-Apr-23 18:33N 35°27' E 139°39'0 0.0
2015-Apr-23 17:33N 35°27' E 139°39'0 0.0
2015-Apr-23 16:33N 35°27' E 139°39'0 0.0
2015-Apr-23 15:33N 35°27' E 139°39'0 0.0
2015-Apr-23 14:33N 35°27' E 139°39'0 0.0
2015-Apr-23 13:33N 35°27' E 139°39'0 0.0
2015-Apr-23 12:33N 35°27' E 139°39'0 0.0
2015-Apr-23 11:33N 35°27' E 139°39'0 0.0
2015-Apr-23 10:33N 35°27' E 139°39'0 0.0
2015-Apr-23 09:33N 35°27' E 139°39'3 2.9
2015-Apr-23 08:33N 35°27' E 139°43'4 3.6
2015-Apr-23 07:33N 35°31' E 139°45'1 0.8
2015-Apr-23 06:33N 35°30' E 139°46'0 0.4
2015-Apr-23 05:33N 35°31' E 139°46'3 3.3
2015-Apr-23 04:34N 35°28' E 139°44'0 0.0
2015-Apr-23 03:33N 35°28' E 139°44'0 0.0
2015-Apr-23 02:33N 35°28' E 139°44'3 3.3
2015-Apr-23 01:33N 35°31' E 139°46'0 0.1
2015-Apr-23 00:33N 35°31' E 139°46'3 3.2
2015-Apr-22 23:33N 35°28' E 139°47'2 1.8
2015-Apr-22 22:34N 35°29' E 139°46'2 1.8
2015-Apr-22 21:33N 35°31' E 139°46'7 6.9
2015-Apr-22 20:33N 35°27' E 139°39'0 0.1
2015-Apr-22 19:33N 35°27' E 139°39'0 0.0
2015-Apr-22 18:33N 35°27' E 139°39'0 0.0
2015-Apr-22 17:33N 35°27' E 139°39'0 0.0
2015-Apr-22 16:33N 35°27' E 139°39'0 0.0
2015-Apr-22 15:33N 35°27' E 139°39'0 0.0
2015-Apr-22 14:33N 35°27' E 139°39'0 0.0
2015-Apr-22 13:33N 35°27' E 139°39'0 0.0
2015-Apr-22 12:33N 35°27' E 139°39'0 0.0
2015-Apr-22 11:33N 35°27' E 139°39'0 0.0
2015-Apr-22 10:33N 35°27' E 139°39'0 0.0
2015-Apr-22 09:33N 35°27' E 139°39'5 4.6
2015-Apr-22 08:33N 35°29' E 139°44'4 3.7
2015-Apr-22 07:33N 35°27' E 139°40'0 0.3
2015-Apr-22 06:33N 35°28' E 139°40'0 0.0
2015-Apr-22 05:33N 35°28' E 139°40'0 0.0
2015-Apr-22 04:33N 35°28' E 139°40'0 0.0
2015-Apr-22 03:33N 35°28' E 139°40'0 0.0
2015-Apr-22 02:32N 35°28' E 139°40'0 0.0
2015-Apr-22 01:33N 35°28' E 139°40'0 0.0
2015-Apr-22 00:33N 35°28' E 139°40'0 0.3
2015-Apr-21 23:33N 35°27' E 139°41'2 1.6
2015-Apr-21 22:33N 35°28' E 139°42'1 1.3
2015-Apr-21 21:33N 35°27' E 139°41'1 1.4
2015-Apr-21 20:33N 35°27' E 139°39'0 0.0
2015-Apr-21 19:33N 35°27' E 139°39'0 0.0
2015-Apr-21 18:33N 35°27' E 139°39'0 0.0
2015-Apr-21 17:33N 35°27' E 139°39'0 0.0
2015-Apr-21 16:33N 35°27' E 139°39'0 0.0
2015-Apr-21 15:33N 35°27' E 139°39'0 0.0
2015-Apr-21 14:33N 35°27' E 139°39'0 0.0
2015-Apr-21 13:33N 35°27' E 139°39'0 0.0
2015-Apr-21 12:33N 35°27' E 139°39'0 0.0
2015-Apr-21 11:33N 35°27' E 139°39'0 0.0
2015-Apr-21 10:33N 35°27' E 139°39'1 0.9
2015-Apr-21 09:33N 35°27' E 139°40'1 1.3
2015-Apr-21 08:33N 35°26' E 139°42'0 0.1
2015-Apr-21 07:33N 35°26' E 139°42'0 0.0
2015-Apr-21 06:33N 35°26' E 139°42'0 0.0
2015-Apr-21 05:33N 35°26' E 139°42'0 0.0
2015-Apr-21 04:33N 35°26' E 139°42'0 0.0
2015-Apr-21 03:33N 35°26' E 139°42'0 0.0
2015-Apr-21 02:33N 35°26' E 139°42'0 0.0
2015-Apr-21 01:33N 35°26' E 139°42'0 0.0
2015-Apr-21 00:33N 35°26' E 139°42'0 0.0
2015-Apr-20 23:33N 35°26' E 139°42'1 0.7
2015-Apr-20 22:33N 35°27' E 139°41'3 2.9
2015-Apr-20 21:33N 35°26' E 139°44'4 4.4
2015-Apr-20 20:33N 35°27' E 139°39'0 0.0
2015-Apr-20 19:33N 35°27' E 139°39'0 0.0
2015-Apr-20 18:33N 35°27' E 139°39'0 0.0
2015-Apr-20 17:33N 35°27' E 139°39'0 0.0
2015-Apr-20 16:33N 35°27' E 139°39'0 0.0
2015-Apr-20 15:33N 35°27' E 139°39'0 0.0
2015-Apr-20 14:33N 35°27' E 139°39'0 0.0
2015-Apr-20 13:33N 35°27' E 139°39'0 0.0
2015-Apr-20 12:33N 35°27' E 139°39'0 0.0
2015-Apr-20 11:33N 35°27' E 139°39'0 0.0
2015-Apr-20 10:33N 35°27' E 139°39'0 0.0
2015-Apr-20 09:34N 35°27' E 139°39'2 1.6
2015-Apr-20 08:33N 35°27' E 139°41'0 0.1
2015-Apr-20 07:33N 35°27' E 139°41'1 1.0
2015-Apr-20 06:33N 35°28' E 139°42'1 0.6
2015-Apr-20 05:33N 35°28' E 139°41'2 1.7
2015-Apr-20 04:33N 35°27' E 139°39'0 0.0
2015-Apr-20 03:33N 35°27' E 139°39'0 0.0
2015-Apr-20 02:33N 35°27' E 139°39'0 0.0
2015-Apr-20 01:33N 35°27' E 139°39'0 0.0
2015-Apr-20 00:33N 35°27' E 139°39'1 1.0
2015-Apr-19 23:33N 35°27' E 139°41'2 2.4
2015-Apr-19 22:33N 35°26' E 139°43'3 3.4
2015-Apr-19 21:33N 35°27' E 139°39'0 0.0
2015-Apr-18 23:03N 35°27' E 139°39'0 0.0
2015-Apr-18 22:34N 35°27' E 139°39'0 0.0
2015-Apr-18 21:34N 35°27' E 139°39'0 0.0
2015-Apr-18 20:33N 35°27' E 139°39'0 0.0
2015-Apr-18 19:34N 35°27' E 139°39'0 0.0
2015-Apr-18 18:33N 35°27' E 139°39'0 0.0
2015-Apr-18 17:34N 35°27' E 139°39'0 0.0
2015-Apr-18 16:34N 35°27' E 139°39'0 0.0
2015-Apr-18 15:33N 35°27' E 139°39'0 0.0
2015-Apr-18 14:34N 35°27' E 139°39'0 0.0
2015-Apr-18 13:34N 35°27' E 139°39'0 0.0
2015-Apr-18 12:33N 35°27' E 139°39'0 0.0
2015-Apr-18 11:33N 35°27' E 139°39'  
Track history (hours):
 
Tides and Currents Weather Stations Pressure Air Temp Water Temp Dewpoint Dewpoint Depression Visibility Wind Speed Wind Dir Waves Ship Positions

Kagamaru

Last reported at 2015-Apr-28 11:33 UTC. Time now 2015-Apr-28 11:54 UTC.
Position N 35°25' E 139°41'.

Length 34 m; draft 3.6 m.

Type: Tug. MMSI: 431001272.

Date/timePositionNaut miles runAvg speedWind from/ knotsBaromVisibWave heightAir tempDewpointWater temp
2015-Apr-28 11:33N 35°25' E 139°41'1 1.1
2015-Apr-28 10:33N 35°26' E 139°42'0 0.0
2015-Apr-28 09:33N 35°26' E 139°42'0 0.0
2015-Apr-28 08:33N 35°26' E 139°42'1 1.3
2015-Apr-28 07:33N 35°27' E 139°41'1 0.9
2015-Apr-28 06:33N 35°27' E 139°42'0 0.0
2015-Apr-28 05:33N 35°27' E 139°42'0 0.0
2015-Apr-28 04:33N 35°27' E 139°42'2 2.2
2015-Apr-28 03:33N 35°28' E 139°44'1 1.0
2015-Apr-28 02:33N 35°27' E 139°44'2 1.7
2015-Apr-28 01:33N 35°29' E 139°46'3 3.0
2015-Apr-28 00:33N 35°32' E 139°46'5 4.8
2015-Apr-27 23:33N 35°27' E 139°43'2 1.6
2015-Apr-27 22:33N 35°27' E 139°45'4 4.3
2015-Apr-27 21:33N 35°31' E 139°46'7 6.9
2015-Apr-27 20:33N 35°27' E 139°39'0 0.0
2015-Apr-27 19:33N 35°27' E 139°39'0 0.0
2015-Apr-27 18:33N 35°27' E 139°39'0 0.0
2015-Apr-27 17:33N 35°27' E 139°39'0 0.0
2015-Apr-27 16:33N 35°27' E 139°39'0 0.0
2015-Apr-27 15:33N 35°27' E 139°39'0 0.0
2015-Apr-27 14:33N 35°27' E 139°39'0 0.0
2015-Apr-27 13:33N 35°27' E 139°39'0 0.0
2015-Apr-27 12:33N 35°27' E 139°39'0 0.0
2015-Apr-27 11:33N 35°27' E 139°39'0 0.0
2015-Apr-27 10:33N 35°27' E 139°39'0 0.0
2015-Apr-27 09:33N 35°27' E 139°39'0 0.0
2015-Apr-27 08:33N 35°27' E 139°39'1 0.7
2015-Apr-27 07:33N 35°27' E 139°40'2 1.5
2015-Apr-27 06:34N 35°27' E 139°42'1 0.6
2015-Apr-27 05:33N 35°26' E 139°42'0 0.0
2015-Apr-27 04:33N 35°26' E 139°42'0 0.0
2015-Apr-27 03:33N 35°26' E 139°42'5 5.4
2015-Apr-27 02:33N 35°29' E 139°47'0 0.0
2015-Apr-27 01:33N 35°29' E 139°47'3 3.2
2015-Apr-27 00:33N 35°26' E 139°46'2 2.4
2015-Apr-26 23:33N 35°26' E 139°43'3 2.7
2015-Apr-26 22:33N 35°27' E 139°40'0 0.0
2015-Apr-26 21:33N 35°27' E 139°40'0 0.0
2015-Apr-26 20:33N 35°27' E 139°40'0 0.0
2015-Apr-26 19:33N 35°27' E 139°40'0 0.0
2015-Apr-26 18:33N 35°27' E 139°40'0 0.0
2015-Apr-26 17:33N 35°27' E 139°40'0 0.0
2015-Apr-26 16:33N 35°27' E 139°40'0 0.0
2015-Apr-26 15:33N 35°27' E 139°40'0 0.0
2015-Apr-26 14:33N 35°27' E 139°40'0 0.0
2015-Apr-26 13:33N 35°27' E 139°40'0 0.0
2015-Apr-26 12:33N 35°27' E 139°40'0 0.0
2015-Apr-26 11:34N 35°27' E 139°40'0 0.0
2015-Apr-26 10:33N 35°27' E 139°40'0 0.0
2015-Apr-26 09:33N 35°27' E 139°40'0 0.0
2015-Apr-26 08:33N 35°27' E 139°40'0 0.0
2015-Apr-26 07:33N 35°27' E 139°40'0 0.0
2015-Apr-26 06:33N 35°27' E 139°40'0 0.0
2015-Apr-26 05:33N 35°27' E 139°40'0 0.0
2015-Apr-26 04:33N 35°27' E 139°40'0 0.0
2015-Apr-26 03:33N 35°27' E 139°40'0 0.0
2015-Apr-26 02:33N 35°27' E 139°40'0 0.0
2015-Apr-26 01:33N 35°27' E 139°40'0 0.0
2015-Apr-26 00:33N 35°27' E 139°40'0 0.0
2015-Apr-25 23:33N 35°27' E 139°40'2 1.5
2015-Apr-25 22:33N 35°27' E 139°41'1 1.4
2015-Apr-25 21:33N 35°25' E 139°42'3 2.7
2015-Apr-25 20:33N 35°28' E 139°42'0 0.3
2015-Apr-25 19:33N 35°28' E 139°42'0 0.0
2015-Apr-25 18:33N 35°28' E 139°42'0 0.0
2015-Apr-25 17:33N 35°28' E 139°42'0 0.0
2015-Apr-25 16:33N 35°28' E 139°42'1 1.5
2015-Apr-25 15:33N 35°26' E 139°41'1 1.3
2015-Apr-25 14:33N 35°26' E 139°43'1 0.7
2015-Apr-25 13:33N 35°26' E 139°42'1 1.3
2015-Apr-25 12:33N 35°27' E 139°40'1 1.0
2015-Apr-25 11:33N 35°28' E 139°41'0 0.0
2015-Apr-25 10:33N 35°28' E 139°41'0 0.0
2015-Apr-25 09:33N 35°28' E 139°41'1 0.5
2015-Apr-25 08:33N 35°27' E 139°41'0 0.2
2015-Apr-25 07:33N 35°27' E 139°41'1 1.3
2015-Apr-25 06:33N 35°27' E 139°39'0 0.0
2015-Apr-25 05:33N 35°27' E 139°39'0 0.0
2015-Apr-25 04:33N 35°27' E 139°39'0 0.0
2015-Apr-25 03:33N 35°27' E 139°39'0 0.0
2015-Apr-25 02:33N 35°27' E 139°39'0 0.0
2015-Apr-25 01:33N 35°27' E 139°39'0 0.0
2015-Apr-25 00:33N 35°27' E 139°39'0 0.0
2015-Apr-24 23:33N 35°27' E 139°39'0 0.0
2015-Apr-24 22:33N 35°27' E 139°39'0 0.0
2015-Apr-24 21:33N 35°27' E 139°39'0 0.0
2015-Apr-24 20:33N 35°27' E 139°39'0 0.0
2015-Apr-24 19:33N 35°27' E 139°39'0 0.0
2015-Apr-24 18:33N 35°27' E 139°39'0 0.0
2015-Apr-24 17:33N 35°27' E 139°39'0 0.0
2015-Apr-24 16:33N 35°27' E 139°39'0 0.0
2015-Apr-24 15:33N 35°27' E 139°39'0 0.0
2015-Apr-24 14:33N 35°27' E 139°39'0 0.0
2015-Apr-24 13:33N 35°27' E 139°39'0 0.0
2015-Apr-24 12:33N 35°27' E 139°39'0 0.0
2015-Apr-24 11:33N 35°27' E 139°39'0 0.0
2015-Apr-24 10:33N 35°27' E 139°39'0 0.0
2015-Apr-24 09:33N 35°27' E 139°39'2 2.0
2015-Apr-24 08:33N 35°27' E 139°42'1 1.2
2015-Apr-24 07:33N 35°28' E 139°42'2 2.0
2015-Apr-24 06:33N 35°27' E 139°39'0 0.0
2015-Apr-24 05:33N 35°27' E 139°39'0 0.0
2015-Apr-24 04:33N 35°27' E 139°39'1 1.3
2015-Apr-24 03:33N 35°27' E 139°41'1 1.1
2015-Apr-24 02:33N 35°27' E 139°40'0 0.0
2015-Apr-24 01:33N 35°27' E 139°40'0 0.0
2015-Apr-24 00:33N 35°27' E 139°40'0 0.0
2015-Apr-23 23:33N 35°27' E 139°40'2 2.0
2015-Apr-23 22:33N 35°26' E 139°42'2 2.3
2015-Apr-23 21:33N 35°27' E 139°39'0 0.0
2015-Apr-23 20:33N 35°27' E 139°39'0 0.0
2015-Apr-23 19:33N 35°27' E 139°39'0 0.0
2015-Apr-23 18:33N 35°27' E 139°39'0 0.0
2015-Apr-23 17:33N 35°27' E 139°39'0 0.0
2015-Apr-23 16:33N 35°27' E 139°39'0 0.0
2015-Apr-23 15:33N 35°27' E 139°39'0 0.0
2015-Apr-23 14:33N 35°27' E 139°39'0 0.0
2015-Apr-23 13:33N 35°27' E 139°39'0 0.0
2015-Apr-23 12:33N 35°27' E 139°39'0 0.0
2015-Apr-23 11:33N 35°27' E 139°39'0 0.0
2015-Apr-23 10:33N 35°27' E 139°39'0 0.0
2015-Apr-23 09:33N 35°27' E 139°39'3 2.9
2015-Apr-23 08:33N 35°27' E 139°43'4 3.6
2015-Apr-23 07:33N 35°31' E 139°45'1 0.8
2015-Apr-23 06:33N 35°30' E 139°46'0 0.4
2015-Apr-23 05:33N 35°31' E 139°46'3 3.3
2015-Apr-23 04:34N 35°28' E 139°44'0 0.0
2015-Apr-23 03:33N 35°28' E 139°44'0 0.0
2015-Apr-23 02:33N 35°28' E 139°44'3 3.3
2015-Apr-23 01:33N 35°31' E 139°46'0 0.1
2015-Apr-23 00:33N 35°31' E 139°46'3 3.2
2015-Apr-22 23:33N 35°28' E 139°47'2 1.8
2015-Apr-22 22:34N 35°29' E 139°46'2 1.8
2015-Apr-22 21:33N 35°31' E 139°46'7 6.9
2015-Apr-22 20:33N 35°27' E 139°39'0 0.1
2015-Apr-22 19:33N 35°27' E 139°39'0 0.0
2015-Apr-22 18:33N 35°27' E 139°39'0 0.0
2015-Apr-22 17:33N 35°27' E 139°39'0 0.0
2015-Apr-22 16:33N 35°27' E 139°39'0 0.0
2015-Apr-22 15:33N 35°27' E 139°39'0 0.0
2015-Apr-22 14:33N 35°27' E 139°39'0 0.0
2015-Apr-22 13:33N 35°27' E 139°39'0 0.0
2015-Apr-22 12:33N 35°27' E 139°39'0 0.0
2015-Apr-22 11:33N 35°27' E 139°39'0 0.0
2015-Apr-22 10:33N 35°27' E 139°39'0 0.0
2015-Apr-22 09:33N 35°27' E 139°39'5 4.6
2015-Apr-22 08:33N 35°29' E 139°44'4 3.7
2015-Apr-22 07:33N 35°27' E 139°40'0 0.3
2015-Apr-22 06:33N 35°28' E 139°40'0 0.0
2015-Apr-22 05:33N 35°28' E 139°40'0 0.0
2015-Apr-22 04:33N 35°28' E 139°40'0 0.0
2015-Apr-22 03:33N 35°28' E 139°40'0 0.0
2015-Apr-22 02:32N 35°28' E 139°40'0 0.0
2015-Apr-22 01:33N 35°28' E 139°40'0 0.0
2015-Apr-22 00:33N 35°28' E 139°40'0 0.3
2015-Apr-21 23:33N 35°27' E 139°41'2 1.6
2015-Apr-21 22:33N 35°28' E 139°42'1 1.3
2015-Apr-21 21:33N 35°27' E 139°41'1 1.4
2015-Apr-21 20:33N 35°27' E 139°39'0 0.0
2015-Apr-21 19:33N 35°27' E 139°39'0 0.0
2015-Apr-21 18:33N 35°27' E 139°39'0 0.0
2015-Apr-21 17:33N 35°27' E 139°39'0 0.0
2015-Apr-21 16:33N 35°27' E 139°39'0 0.0
2015-Apr-21 15:33N 35°27' E 139°39'0 0.0
2015-Apr-21 14:33N 35°27' E 139°39'0 0.0
2015-Apr-21 13:33N 35°27' E 139°39'0 0.0
2015-Apr-21 12:33N 35°27' E 139°39'0 0.0
2015-Apr-21 11:33N 35°27' E 139°39'0 0.0
2015-Apr-21 10:33N 35°27' E 139°39'1 0.9
2015-Apr-21 09:33N 35°27' E 139°40'1 1.3
2015-Apr-21 08:33N 35°26' E 139°42'0 0.1
2015-Apr-21 07:33N 35°26' E 139°42'0 0.0
2015-Apr-21 06:33N 35°26' E 139°42'0 0.0
2015-Apr-21 05:33N 35°26' E 139°42'0 0.0
2015-Apr-21 04:33N 35°26' E 139°42'0 0.0
2015-Apr-21 03:33N 35°26' E 139°42'0 0.0
2015-Apr-21 02:33N 35°26' E 139°42'0 0.0
2015-Apr-21 01:33N 35°26' E 139°42'0 0.0
2015-Apr-21 00:33N 35°26' E 139°42'0 0.0
2015-Apr-20 23:33N 35°26' E 139°42'1 0.7
2015-Apr-20 22:33N 35°27' E 139°41'3 2.9
2015-Apr-20 21:33N 35°26' E 139°44'4 4.4
2015-Apr-20 20:33N 35°27' E 139°39'0 0.0
2015-Apr-20 19:33N 35°27' E 139°39'0 0.0
2015-Apr-20 18:33N 35°27' E 139°39'0 0.0
2015-Apr-20 17:33N 35°27' E 139°39'0 0.0
2015-Apr-20 16:33N 35°27' E 139°39'0 0.0
2015-Apr-20 15:33N 35°27' E 139°39'0 0.0
2015-Apr-20 14:33N 35°27' E 139°39'0 0.0
2015-Apr-20 13:33N 35°27' E 139°39'0 0.0
2015-Apr-20 12:33N 35°27' E 139°39'0 0.0
2015-Apr-20 11:33N 35°27' E 139°39'0 0.0
2015-Apr-20 10:33N 35°27' E 139°39'0 0.0
2015-Apr-20 09:34N 35°27' E 139°39'2 1.6
2015-Apr-20 08:33N 35°27' E 139°41'0 0.1
2015-Apr-20 07:33N 35°27' E 139°41'1 1.0
2015-Apr-20 06:33N 35°28' E 139°42'1 0.6
2015-Apr-20 05:33N 35°28' E 139°41'2 1.7
2015-Apr-20 04:33N 35°27' E 139°39'0 0.0
2015-Apr-20 03:33N 35°27' E 139°39'0 0.0
2015-Apr-20 02:33N 35°27' E 139°39'0 0.0
2015-Apr-20 01:33N 35°27' E 139°39'0 0.0
2015-Apr-20 00:33N 35°27' E 139°39'1 1.0
2015-Apr-19 23:33N 35°27' E 139°41'2 2.4
2015-Apr-19 22:33N 35°26' E 139°43'3 3.4
2015-Apr-19 21:33N 35°27' E 139°39'0 0.0
2015-Apr-18 23:03N 35°27' E 139°39'0 0.0
2015-Apr-18 22:34N 35°27' E 139°39'0 0.0
2015-Apr-18 21:34N 35°27' E 139°39'0 0.0
2015-Apr-18 20:33N 35°27' E 139°39'0 0.0
2015-Apr-18 19:34N 35°27' E 139°39'0 0.0
2015-Apr-18 18:33N 35°27' E 139°39'0 0.0
2015-Apr-18 17:34N 35°27' E 139°39'0 0.0
2015-Apr-18 16:34N 35°27' E 139°39'0 0.0
2015-Apr-18 15:33N 35°27' E 139°39'0 0.0
2015-Apr-18 14:34N 35°27' E 139°39'0 0.0
2015-Apr-18 13:34N 35°27' E 139°39'0 0.0
2015-Apr-18 12:33N 35°27' E 139°39'0 0.0
2015-Apr-18 11:33N 35°27' E 139°39'  

Dump ship's entire track history